Time;durP1;ratioP1;P1;durP2;ratioP2;P2;SDS_P1;SDS_P2;PMS_P1;PMS_P2;Temp;Humidity;BMP_temperature;BMP_pressure;BME280_temperature;BME280_humidity;BME280_pressure;Samples;Min_cycle;Max_cycle;Signal;HPM_P1;HPM_P2
2022/06/05 00:00:43;;;;;;;9.30;8.40;;;;;;;22.80;72.75;95057.19;5092540;28;20455;-80
2022/06/05 00:03:20;;;;;;;8.97;8.07;;;;;;;22.79;73.31;95052.88;5092207;28;20443;-80
2022/06/05 00:05:55;;;;;;;9.17;8.03;;;;;;;22.74;73.62;95051.81;5092036;28;20451;-81
2022/06/05 00:08:31;;;;;;;10.80;8.33;;;;;;;22.66;73.49;95049.34;5095202;28;20988;-83
2022/06/05 00:11:00;;;;;;;9.53;8.20;;;;;;;22.63;73.93;95047.06;5096030;28;20795;-81
2022/06/05 00:13:33;;;;;;;9.90;8.33;;;;;;;22.57;74.30;95051.38;5096132;28;20957;-80
2022/06/05 00:16:00;;;;;;;9.80;8.60;;;;;;;22.59;74.46;95038.63;5095802;28;20498;-80
2022/06/05 00:18:27;;;;;;;20.57;9.00;;;;;;;22.56;75.12;95041.69;5096577;28;20439;-80
2022/06/05 00:20:56;;;;;;;11.10;8.23;;;;;;;22.53;75.09;95039.41;5096281;28;20470;-81
2022/06/05 00:23:22;;;;;;;11.03;8.70;;;;;;;22.50;74.74;95039.81;5096034;28;20447;-81
2022/06/05 00:25:56;;;;;;;12.60;8.77;;;;;;;22.49;75.08;95043.50;5096201;28;20444;-80
2022/06/05 00:28:35;;;;;;;10.73;9.40;;;;;;;22.44;75.61;95043.28;5096156;28;20436;-80
2022/06/05 00:31:12;;;;;;;8.30;7.53;;;;;;;22.40;75.92;95047.38;5095854;28;20880;-81
2022/06/05 00:33:41;;;;;;;12.77;9.67;;;;;;;22.35;75.69;95047.16;5060081;28;20453;-81
2022/06/05 00:36:23;;;;;;;9.30;8.30;;;;;;;22.30;75.42;95049.59;5095362;28;20491;-80
2022/06/05 00:38:59;;;;;;;9.33;8.40;;;;;;;22.26;75.03;95059.84;5095555;28;20448;-80
2022/06/05 00:41:42;;;;;;;12.80;9.20;;;;;;;22.27;74.64;95056.19;5095343;28;20835;-80
2022/06/05 00:44:12;;;;;;;9.73;8.73;;;;;;;22.30;74.67;95060.31;5095481;28;20448;-80
2022/06/05 00:46:40;;;;;;;12.10;9.13;;;;;;;22.32;74.92;95058.25;5095591;28;20466;-80
2022/06/05 00:49:08;;;;;;;8.37;7.60;;;;;;;22.34;74.76;95058.88;5095204;28;20918;-81
2022/06/05 00:51:36;;;;;;;13.57;8.87;;;;;;;22.37;74.92;95061.97;5095246;28;20447;-80
2022/06/05 00:54:04;;;;;;;10.70;9.53;;;;;;;22.36;74.61;95062.19;5095551;28;20459;-81
2022/06/05 00:56:32;;;;;;;9.43;8.20;;;;;;;22.33;74.62;95059.91;5095394;28;20493;-80
2022/06/05 00:58:59;;;;;;;12.53;8.73;;;;;;;22.30;74.60;95068.31;5043017;28;20444;-80
2022/06/05 01:01:27;;;;;;;12.40;8.40;;;;;;;22.24;74.63;95062.72;5094974;28;20436;-81
2022/06/05 01:03:54;;;;;;;12.33;8.70;;;;;;;22.29;74.66;95066.66;5094907;28;20444;-80
2022/06/05 01:06:21;;;;;;;13.90;9.43;;;;;;;22.26;75.10;95065.19;5095414;28;21004;-80
2022/06/05 01:08:49;;;;;;;12.03;8.50;;;;;;;22.19;74.92;95070.50;5094767;28;20474;-80
2022/06/05 01:11:21;;;;;;;11.80;9.50;;;;;;;22.14;75.25;95062.25;5095203;28;20456;-81
2022/06/05 01:14:02;;;;;;;7.20;6.50;;;;;;;22.13;74.96;95060.59;5094944;28;20452;-80
2022/06/05 01:16:32;;;;;;;11.10;7.93;;;;;;;22.07;75.33;95065.91;5094806;28;20911;-81
2022/06/05 01:19:16;;;;;;;10.37;7.90;;;;;;;22.02;75.74;95060.31;5093888;28;20450;-80
2022/06/05 01:22:00;;;;;;;12.20;8.57;;;;;;;21.93;76.37;95059.63;5094749;28;20440;-80
2022/06/05 01:24:43;;;;;;;12.87;8.93;;;;;;;21.92;76.28;95063.31;5094624;28;20442;-80
2022/06/05 01:27:15;;;;;;;9.10;8.30;;;;;;;21.91;76.73;95054.47;5094682;28;20935;-81
2022/06/05 01:29:48;;;;;;;11.63;8.73;;;;;;;21.85;76.94;95060.59;5094578;28;20451;-80
2022/06/05 01:32:25;;;;;;;12.60;8.93;;;;;;;21.89;76.93;95059.19;5094591;28;20446;-80
2022/06/05 01:34:56;;;;;;;9.27;8.37;;;;;;;21.89;76.99;95050.34;5094409;28;20444;-80
2022/06/05 01:37:29;;;;;;;9.33;8.23;;;;;;;21.92;77.01;95058.78;5094933;28;20520;-80
2022/06/05 01:40:08;;;;;;;11.40;9.00;;;;;;;21.93;76.72;95060.44;5094538;28;20450;-80
2022/06/05 01:42:41;;;;;;;11.73;8.37;;;;;;;21.92;77.10;95058.78;5094613;28;20444;-80
2022/06/05 01:45:12;;;;;;;12.57;7.87;;;;;;;21.91;77.51;95064.34;5094202;28;20443;-80
2022/06/05 01:47:44;;;;;;;13.83;8.57;;;;;;;21.92;77.01;95066.81;5094572;28;20441;-80
2022/06/05 01:50:17;;;;;;;16.13;8.77;;;;;;;21.93;77.47;95067.63;5094112;28;20534;-81
2022/06/05 01:52:48;;;;;;;15.20;10.17;;;;;;;21.88;77.55;95052.19;5094179;28;20444;-80
2022/06/05 01:55:23;;;;;;;11.83;9.07;;;;;;;21.84;77.49;95058.13;5094112;28;20436;-80
2022/06/05 01:57:53;;;;;;;12.03;9.23;;;;;;;21.78;78.08;95057.06;5060131;28;20451;-80
2022/06/05 02:00:22;;;;;;;10.27;8.43;;;;;;;21.82;77.96;95055.66;5041893;28;20444;-81
2022/06/05 02:02:56;;;;;;;10.33;8.90;;;;;;;21.80;78.26;95060.38;5094017;28;20448;-81
2022/06/05 02:05:28;;;;;;;8.60;7.70;;;;;;;21.75;78.35;95053.97;5093749;28;20455;-81
2022/06/05 02:08:00;;;;;;;10.77;8.53;;;;;;;21.72;78.36;95062.38;5094200;28;20440;-81
2022/06/05 02:10:31;;;;;;;11.27;9.07;;;;;;;21.67;78.67;95054.09;5093931;28;20831;-81
2022/06/05 02:13:00;;;;;;;11.10;8.27;;;;;;;21.65;78.36;95057.78;5093798;28;20444;-80
2022/06/05 02:15:29;;;;;;;10.50;8.77;;;;;;;21.62;78.95;95047.50;5093641;28;20448;-81
2022/06/05 02:17:57;;;;;;;12.87;8.00;;;;;;;21.59;78.72;95039.88;5093917;28;20440;-80
2022/06/05 02:20:24;;;;;;;13.83;7.90;;;;;;;21.57;79.08;95039.25;5093471;28;20471;-80
2022/06/05 02:22:52;;;;;;;13.50;8.60;;;;;;;21.58;78.96;95040.88;5093459;28;20447;-80
2022/06/05 02:25:22;;;;;;;14.93;9.43;;;;;;;21.57;78.85;95041.91;5093282;28;20959;-80
2022/06/05 02:27:48;;;;;;;11.87;8.73;;;;;;;21.56;79.21;95048.28;5093565;28;20799;-80
2022/06/05 02:30:18;;;;;;;10.50;9.03;;;;;;;21.58;79.02;95046.22;5093694;28;20448;-80
2022/06/05 02:33:04;;;;;;;10.67;8.53;;;;;;;21.53;79.93;95047.84;5093324;28;20444;-80
2022/06/05 02:35:36;;;;;;;9.27;8.10;;;;;;;21.48;79.86;95053.75;5093697;28;20432;-81
2022/06/05 02:38:22;;;;;;;10.33;8.43;;;;;;;21.46;79.87;95052.31;5093832;28;20443;-80
2022/06/05 02:40:59;;;;;;;8.87;7.97;;;;;;;21.41;80.32;95049.41;5093429;28;20951;-80
2022/06/05 02:43:34;;;;;;;11.90;9.80;;;;;;;21.39;80.39;95046.88;5093261;28;20438;-80
2022/06/05 02:46:09;;;;;;;11.90;8.80;;;;;;;21.40;80.70;95043.22;5093457;28;20447;-80
2022/06/05 02:48:42;;;;;;;11.20;9.70;;;;;;;21.40;80.33;95032.53;5092954;28;20952;-80
2022/06/05 02:51:13;;;;;;;18.43;9.53;;;;;;;21.41;80.67;95041.38;5092942;28;20440;-80
2022/06/05 02:53:49;;;;;;;10.60;8.60;;;;;;;21.41;80.49;95031.53;5093172;28;20444;-80
2022/06/05 02:56:16;;;;;;;10.67;8.70;;;;;;;21.37;80.56;95026.75;5092939;28;20476;-80
2022/06/05 02:58:43;;;;;;;14.10;9.80;;;;;;;21.34;80.57;95025.28;5092891;28;20459;-80
2022/06/05 03:03:55;;;;;;;10.20;9.30;;;;;;;21.34;80.85;95022.63;5062905;28;20775;-80
2022/06/05 03:06:22;;;;;;;13.13;8.50;;;;;;;21.33;81.18;95026.31;5092961;28;20444;-80
2022/06/05 03:08:50;;;;;;;15.47;8.90;;;;;;;21.27;81.71;95030.56;5092825;28;20446;-80
2022/06/05 03:11:16;;;;;;;11.37;8.87;;;;;;;21.31;81.29;95028.34;5092744;28;20467;-80
2022/06/05 03:13:43;;;;;;;11.70;9.23;;;;;;;21.33;81.61;95032.47;5092736;28;20932;-80
2022/06/05 03:16:12;;;;;;;13.17;9.07;;;;;;;21.31;81.49;95031.00;5092671;28;20838;-80
2022/06/05 03:18:40;;;;;;;10.40;9.10;;;;;;;21.32;81.62;95038.81;5092966;28;20436;-80
2022/06/05 03:21:07;;;;;;;21.17;9.57;;;;;;;21.37;81.63;95035.56;5092522;28;20475;-81
2022/06/05 03:23:34;;;;;;;14.60;9.50;;;;;;;21.36;81.55;95031.25;5092650;28;20818;-81
2022/06/05 03:26:01;;;;;;;12.03;9.00;;;;;;;21.40;81.59;95042.41;5093061;28;20440;-80
2022/06/05 03:28:28;;;;;;;12.50;8.57;;;;;;;21.43;81.72;95045.50;5092679;28;20442;-80
2022/06/05 03:30:55;;;;;;;12.10;9.37;;;;;;;21.53;81.07;95050.50;5092808;28;20451;-80
2022/06/05 03:33:23;;;;;;;12.33;8.90;;;;;;;21.61;80.66;95053.84;5057088;28;20439;-80
2022/06/05 03:35:50;;;;;;;10.27;9.27;;;;;;;21.85;79.97;95051.75;5092378;28;20801;-81
2022/06/05 03:38:17;;;;;;;15.47;9.03;;;;;;;22.04;78.82;95059.13;5092613;28;20977;-80
2022/06/05 03:40:45;;;;;;;12.37;8.27;;;;;;;22.29;77.81;95055.97;5092804;28;20448;-80
2022/06/05 03:43:13;;;;;;;16.67;8.73;;;;;;;22.55;76.95;95050.72;5059886;28;20510;-80
2022/06/05 03:45:40;;;;;;;11.37;9.00;;;;;;;22.84;75.46;95069.19;5096689;28;20424;-80
2022/06/05 03:48:08;;;;;;;12.97;8.33;;;;;;;23.09;74.21;95068.63;5096825;28;20443;-81
2022/06/05 03:50:39;;;;;;;9.17;7.70;;;;;;;23.38;73.06;95070.94;5096581;28;20948;-81
2022/06/05 03:53:06;;;;;;;10.80;8.80;;;;;;;23.65;72.14;95068.31;5096575;28;20502;-81
2022/06/05 03:55:33;;;;;;;13.43;8.83;;;;;;;23.92;71.29;95077.97;5096681;28;20440;-81
2022/06/05 03:58:00;;;;;;;12.83;8.83;;;;;;;24.23;69.71;95074.63;5096135;28;20502;-80
2022/06/05 04:00:27;;;;;;;11.97;9.03;;;;;;;24.40;69.65;95077.72;5096294;28;20443;-80
2022/06/05 04:02:54;;;;;;;9.20;8.30;;;;;;;24.34;68.81;95075.91;5096335;28;20448;-81
2022/06/05 04:05:22;;;;;;;13.50;9.33;;;;;;;24.60;68.70;95080.34;5095964;28;20961;-81
2022/06/05 04:07:51;;;;;;;23.07;10.20;;;;;;;24.75;68.38;95078.22;5096111;28;20444;-80
2022/06/05 04:10:19;;;;;;;10.57;8.73;;;;;;;24.97;68.24;95073.38;5096029;28;20934;-81
2022/06/05 04:12:47;;;;;;;10.57;8.47;;;;;;;25.26;66.68;95075.50;5096347;28;20452;-80
2022/06/05 04:15:14;;;;;;;13.07;9.17;;;;;;;25.52;66.27;95079.06;5095953;28;20923;-81
2022/06/05 04:17:41;;;;;;;12.77;9.37;;;;;;;25.80;65.28;95071.44;5095882;28;20484;-81
2022/06/05 04:20:10;;;;;;;11.30;8.83;;;;;;;26.08;63.70;95075.53;5096243;28;20467;-81
2022/06/05 04:22:38;;;;;;;10.40;8.60;;;;;;;26.37;63.12;95077.53;5096144;28;20558;-81
2022/06/05 04:25:09;;;;;;;10.27;9.27;;;;;;;26.66;62.34;95069.78;5095671;28;20981;-81
2022/06/05 04:27:37;;;;;;;9.87;9.03;;;;;;;26.80;61.29;95071.25;5095923;28;20449;-81
2022/06/05 04:30:04;;;;;;;10.10;8.77;;;;;;;26.70;61.57;95070.97;5095759;28;20949;-80
2022/06/05 04:32:31;;;;;;;13.33;9.77;;;;;;;26.74;62.17;95058.69;5095852;28;20433;-80
2022/06/05 04:34:58;;;;;;;14.37;9.00;;;;;;;26.86;61.43;95064.94;5076863;28;20444;-81
2022/06/05 04:37:25;;;;;;;10.67;9.53;;;;;;;26.92;60.90;95063.25;5095501;28;20483;-81
2022/06/05 04:39:52;;;;;;;11.57;9.00;;;;;;;27.10;59.49;95071.28;5096021;28;20443;-81
2022/06/05 04:42:20;;;;;;;9.03;8.13;;;;;;;27.29;59.70;95064.00;5060360;28;20452;-81
2022/06/05 04:44:47;;;;;;;11.07;9.97;;;;;;;27.39;59.00;95062.38;5043566;28;20494;-81
2022/06/05 04:47:14;;;;;;;11.13;9.23;;;;;;;27.38;59.84;95059.91;5095889;28;20445;-81
2022/06/05 04:49:41;;;;;;;9.43;8.53;;;;;;;27.19;60.02;95063.75;5095390;28;20456;-81
2022/06/05 04:52:08;;;;;;;10.20;8.90;;;;;;;27.18;59.75;95062.91;5095186;28;20973;-81
2022/06/05 04:54:35;;;;;;;14.33;9.80;;;;;;;27.34;59.82;95058.75;5094066;28;20456;-81
2022/06/05 04:57:02;;;;;;;20.77;9.53;;;;;;;27.34;59.41;95053.34;5095575;28;20507;-81
2022/06/05 04:59:30;;;;;;;12.47;9.80;;;;;;;27.63;59.59;95057.91;5095666;28;20445;-81
2022/06/05 05:01:57;;;;;;;12.43;10.20;;;;;;;27.87;58.60;95052.53;5095484;28;20943;-80
2022/06/05 05:04:24;;;;;;;12.90;9.77;;;;;;;28.16;58.10;95058.88;5095395;28;20837;-81
2022/06/05 05:06:51;;;;;;;12.33;11.07;;;;;;;28.41;57.14;95061.38;5095079;28;20514;-81
2022/06/05 05:09:18;;;;;;;13.90;9.77;;;;;;;28.65;56.89;95057.59;5094906;28;20444;-81
2022/06/05 05:11:45;;;;;;;16.63;10.57;;;;;;;28.80;56.61;95076.78;5094965;28;20449;-81
2022/06/05 05:14:12;;;;;;;12.57;10.70;;;;;;;28.72;55.75;95066.38;5094700;28;20452;-81
2022/06/05 05:16:40;;;;;;;12.63;9.50;;;;;;;28.66;56.23;95064.63;5094804;28;20982;-81
2022/06/05 05:19:08;;;;;;;17.63;9.73;;;;;;;28.74;56.30;95066.94;5094942;28;20465;-81
2022/06/05 05:21:35;;;;;;;17.00;9.77;;;;;;;28.88;55.73;95071.03;5094882;28;20445;-81
2022/06/05 05:24:02;;;;;;;10.80;9.73;;;;;;;28.90;56.25;95074.31;5095337;28;20440;-81
2022/06/05 05:26:32;;;;;;;12.20;10.97;;;;;;;28.87;56.28;95077.50;5094693;28;20448;-80
2022/06/05 05:29:00;;;;;;;10.20;9.20;;;;;;;28.79;56.09;95082.44;5094702;28;20464;-81
2022/06/05 05:31:29;;;;;;;12.93;10.10;;;;;;;28.88;55.36;95084.53;5095199;28;20552;-80
2022/06/05 05:33:59;;;;;;;11.97;10.20;;;;;;;29.06;54.48;95078.16;5094793;28;20456;-81
2022/06/05 05:36:26;;;;;;;12.00;9.83;;;;;;;29.40;54.62;95080.97;5094684;28;20456;-81
2022/06/05 05:44:25;;;;;;;9.57;8.57;;;;;;;30.52;51.58;95079.06;5094450;28;20842;-81
2022/06/05 05:46:52;;;;;;;10.03;9.03;;;;;;;30.87;50.16;95083.34;5094222;28;20460;-81
2022/06/05 05:49:20;;;;;;;10.40;9.30;;;;;;;31.12;49.25;95074.69;5094289;28;20453;-81
2022/06/05 05:51:47;;;;;;;11.63;10.43;;;;;;;31.01;49.48;95081.09;5094500;28;20445;-81
2022/06/05 05:54:14;;;;;;;14.80;10.07;;;;;;;30.94;50.24;95075.00;5042163;28;20528;-81
2022/06/05 05:56:41;;;;;;;12.70;9.93;;;;;;;30.99;49.47;95073.22;5094223;28;20486;-81
2022/06/05 05:59:08;;;;;;;11.37;10.13;;;;;;;31.20;48.97;95076.16;5094500;28;20813;-81
2022/06/05 06:01:35;;;;;;;17.50;10.67;;;;;;;31.07;49.48;95082.78;5058337;28;20438;-81
2022/06/05 06:04:02;;;;;;;19.30;12.00;;;;;;;31.19;49.39;95077.25;5093945;28;20456;-81
2022/06/05 06:06:33;;;;;;;13.80;10.80;;;;;;;31.13;49.24;95081.75;5093664;28;20435;-81
2022/06/05 06:09:00;;;;;;;12.87;11.57;;;;;;;30.85;49.42;95084.66;5093953;28;20460;-81
2022/06/05 06:11:28;;;;;;;11.90;10.00;;;;;;;30.70;50.49;95080.69;5093774;28;20446;-81
2022/06/05 06:13:55;;;;;;;12.80;10.63;;;;;;;30.72;50.40;95075.03;5093667;28;20455;-81
2022/06/05 06:16:22;;;;;;;15.53;10.80;;;;;;;30.93;50.11;95073.38;5093627;28;20457;-81
2022/06/05 06:18:48;;;;;;;18.33;10.33;;;;;;;31.20;48.74;95085.13;5093639;28;20489;-81
2022/06/05 06:21:15;;;;;;;15.60;9.70;;;;;;;31.38;48.39;95087.50;5093804;28;20445;-82
2022/06/05 06:23:44;;;;;;;15.33;10.40;;;;;;;31.70;47.89;95089.44;5094097;28;20437;-81
2022/06/05 06:26:11;;;;;;;12.43;10.20;;;;;;;31.66;46.60;95088.31;5041418;28;20441;-81
2022/06/05 06:28:38;;;;;;;12.83;9.87;;;;;;;31.59;47.82;95077.69;5093577;28;20449;-81
2022/06/05 06:31:05;;;;;;;12.20;9.70;;;;;;;31.68;48.22;95081.56;5093534;28;20457;-81
2022/06/05 06:33:32;;;;;;;13.90;9.37;;;;;;;31.71;48.29;95072.94;5093227;28;20441;-81
2022/06/05 06:36:02;;;;;;;14.47;10.40;;;;;;;31.87;47.25;95073.09;5093317;28;20454;-82
2022/06/05 06:38:29;;;;;;;11.20;10.10;;;;;;;31.85;49.25;95080.66;5093169;28;20476;-81
2022/06/05 06:41:02;;;;;;;20.07;10.10;;;;;;;31.83;48.15;95071.97;5093561;28;20445;-81
2022/06/05 06:43:30;;;;;;;13.97;11.00;;;;;;;31.55;49.57;95067.59;5093277;28;20455;-81
2022/06/05 06:45:56;;;;;;;14.80;10.27;;;;;;;31.76;49.77;95072.16;5093257;28;20496;-81
2022/06/05 06:48:24;;;;;;;10.93;9.70;;;;;;;32.00;49.21;95068.03;5093198;28;20456;-81
2022/06/05 06:50:52;;;;;;;12.60;11.40;;;;;;;32.05;47.79;95064.53;5093231;28;20443;-80
2022/06/05 06:53:19;;;;;;;11.70;9.93;;;;;;;31.99;48.53;95071.00;5092976;28;20831;-81
2022/06/05 06:55:46;;;;;;;22.80;10.50;;;;;;;31.95;47.99;95064.47;5093148;28;20464;-81
2022/06/05 06:58:14;;;;;;;12.13;11.03;;;;;;;31.66;48.57;95062.00;5092776;28;20844;-81
2022/06/05 07:00:41;;;;;;;12.33;10.80;;;;;;;31.72;48.73;95049.34;5093286;28;20822;-81
2022/06/05 07:03:08;;;;;;;11.40;9.93;;;;;;;31.47;49.05;95058.00;5093202;28;20453;-81
2022/06/05 07:05:35;;;;;;;11.33;9.87;;;;;;;31.35;49.40;95054.66;5092669;28;20940;-81
2022/06/05 07:08:02;;;;;;;12.43;11.13;;;;;;;31.09;50.04;95061.66;5057952;28;20464;-81
2022/06/05 07:10:29;;;;;;;11.33;9.73;;;;;;;30.78;51.51;95055.06;5092804;28;20814;-81
2022/06/05 07:12:56;;;;;;;12.60;11.00;;;;;;;30.58;51.90;95054.75;5092675;28;20441;-81
2022/06/05 07:15:26;;;;;;;17.73;10.93;;;;;;;30.57;51.69;95048.50;5092676;28;20448;-81
2022/06/05 07:17:53;;;;;;;14.07;9.97;;;;;;;30.62;52.05;95053.19;5092180;28;20490;-81
2022/06/05 07:20:20;;;;;;;14.20;11.30;;;;;;;30.81;52.02;95055.38;5093019;28;20468;-81
2022/06/05 07:22:47;;;;;;;11.43;10.33;;;;;;;31.06;52.07;95054.03;5093012;28;20514;-81
2022/06/05 07:25:14;;;;;;;13.17;9.77;;;;;;;30.99;50.09;95048.00;5092662;28;20458;-81
2022/06/05 07:27:41;;;;;;;20.93;11.53;;;;;;;30.94;50.38;95053.31;5092902;28;20806;-81
2022/06/05 07:30:09;;;;;;;13.57;9.70;;;;;;;30.88;50.96;95048.94;5092795;28;20460;-81
2022/06/05 07:32:37;;;;;;;13.00;9.80;;;;;;;30.86;51.07;95054.59;5092537;28;20446;-81
2022/06/05 07:35:04;;;;;;;12.33;9.50;;;;;;;31.02;50.84;95042.06;5092626;28;20449;-81
2022/06/05 07:37:31;;;;;;;10.93;8.80;;;;;;;31.01;50.33;95037.72;5092456;28;20482;-81
2022/06/05 07:39:58;;;;;;;9.10;8.30;;;;;;;30.90;50.46;95041.34;5092481;28;20445;-81
2022/06/05 07:42:25;;;;;;;11.07;9.30;;;;;;;30.55;50.96;95039.81;5092405;28;20454;-81
2022/06/05 07:44:53;;;;;;;8.83;8.03;;;;;;;30.75;49.09;95037.41;5092810;28;20439;-81
2022/06/05 07:47:23;;;;;;;12.50;8.63;;;;;;;30.87;49.14;95041.88;5093306;28;20481;-81
2022/06/05 07:49:51;;;;;;;9.07;8.17;;;;;;;30.94;49.37;95042.50;5092871;28;20499;-81
2022/06/05 07:55:06;;;;;;;9.37;8.67;;;;;;;30.93;50.14;95025.41;5092360;28;20429;-81
2022/06/05 07:57:33;;;;;;;11.83;8.83;;;;;;;30.90;50.58;95020.50;5092556;28;20473;-81
2022/06/05 08:00:00;;;;;;;10.80;8.27;;;;;;;31.04;49.57;95018.22;5092227;28;20450;-81
2022/06/05 08:02:28;;;;;;;12.70;9.00;;;;;;;31.14;49.62;95021.03;5092917;28;20806;-81
2022/06/05 08:04:57;;;;;;;11.30;7.90;;;;;;;31.36;48.65;95013.72;5092304;28;20437;-81
2022/06/05 08:07:25;;;;;;;8.20;7.47;;;;;;;31.06;48.51;95024.22;5040276;28;20944;-81
2022/06/05 08:09:53;;;;;;;10.67;7.17;;;;;;;31.21;47.51;95012.72;5092573;28;20456;-81
2022/06/05 08:12:22;;;;;;;9.30;8.37;;;;;;;31.05;48.73;95015.25;5092073;28;20443;-81
2022/06/05 08:14:53;;;;;;;9.00;8.30;;;;;;;31.06;48.76;95016.06;5092169;28;20823;-81
2022/06/05 08:17:21;;;;;;;8.07;7.20;;;;;;;31.30;49.09;95014.75;5092037;28;20442;-81
2022/06/05 08:19:49;;;;;;;10.00;7.60;;;;;;;31.17;48.39;95028.69;5092138;28;20566;-81
2022/06/05 08:22:19;;;;;;;12.57;8.47;;;;;;;31.09;48.36;95026.41;5092547;28;20453;-81
2022/06/05 08:24:46;;;;;;;14.00;7.70;;;;;;;31.06;48.34;95021.50;5092180;28;20457;-80
2022/06/05 08:27:17;;;;;;;13.83;7.57;;;;;;;31.16;46.61;95020.78;5073237;28;20449;-81
2022/06/05 08:29:44;;;;;;;10.97;7.73;;;;;;;31.03;49.03;95008.47;5095365;28;20924;-81
2022/06/05 08:32:13;;;;;;;11.23;7.63;;;;;;;30.94;47.85;95015.38;5095723;28;20445;-80
2022/06/05 08:34:40;;;;;;;13.00;7.63;;;;;;;30.86;47.52;95013.13;5076802;28;20437;-81
2022/06/05 08:42:49;;;;;;;9.93;8.73;;;;;;;30.86;47.07;95007.72;5095584;28;20420;-81
2022/06/05 08:45:24;;;;;;;10.77;7.40;;;;;;;30.88;46.96;95009.09;5095802;28;20477;-81
2022/06/05 08:47:55;;;;;;;7.70;6.90;;;;;;;31.00;46.83;95004.38;5095316;28;20445;-81
2022/06/05 08:50:29;;;;;;;12.20;6.87;;;;;;;31.27;46.40;95009.00;5095723;28;20461;-81
2022/06/05 08:52:59;;;;;;;7.63;6.40;;;;;;;31.45;45.41;95005.91;5095695;28;20437;-81
2022/06/05 08:55:32;;;;;;;11.30;6.83;;;;;;;31.57;45.19;95012.00;5095215;28;20912;-81
2022/06/05 08:58:05;;;;;;;10.73;7.20;;;;;;;31.51;44.37;95007.59;5095387;28;20486;-81
2022/06/05 09:00:37;;;;;;;9.03;5.90;;;;;;;31.35;43.40;95011.25;5095408;28;20450;-81
2022/06/05 09:03:12;;;;;;;13.83;6.40;;;;;;;31.35;44.02;95011.25;5060453;28;20453;-80
2022/06/05 09:05:41;;;;;;;8.67;6.10;;;;;;;31.39;42.78;95007.78;5095048;28;20448;-81
2022/06/05 09:08:13;;;;;;;8.03;5.70;;;;;;;31.25;41.33;95006.56;5060336;28;20446;-81
2022/06/05 09:10:45;;;;;;;10.13;6.13;;;;;;;31.26;40.94;95008.19;5095285;28;20434;-81
2022/06/05 09:13:16;;;;;;;9.07;4.93;;;;;;;31.11;40.94;95006.09;5094991;28;20434;-81
2022/06/05 09:15:47;;;;;;;7.00;5.10;;;;;;;31.22;40.89;95001.63;5095066;28;20448;-82
2022/06/05 09:18:17;;;;;;;8.47;6.17;;;;;;;31.02;41.81;94991.38;5094759;28;21055;-82
2022/06/05 09:20:49;;;;;;;12.00;5.93;;;;;;;30.94;42.74;94993.69;5095027;28;20484;-82
2022/06/05 09:23:23;;;;;;;6.10;5.60;;;;;;;30.87;42.64;94995.78;5094812;28;20446;-81
2022/06/05 09:26:08;;;;;;;9.73;6.07;;;;;;;30.92;43.04;94995.84;5095133;28;20842;-82
2022/06/05 09:29:02;;;;;;;7.13;6.33;;;;;;;31.06;42.16;94991.69;5095180;28;20453;-81
2022/06/05 09:32:04;;;;;;;6.27;5.60;;;;;;;31.02;41.63;94998.69;5095251;28;20444;-82
2022/06/05 09:34:37;;;;;;;5.90;5.40;;;;;;;31.20;42.15;94990.22;4973668;28;20490;-81
2022/06/05 09:37:12;;;;;;;5.27;4.77;;;;;;;31.02;42.95;94979.72;4973171;28;20467;-82
2022/06/05 09:39:45;;;;;;;10.57;7.10;;;;;;;30.87;42.93;94976.81;4972550;28;20483;-82
2022/06/05 09:42:36;;;;;;;6.70;5.57;;;;;;;30.81;41.74;94967.81;4973386;28;20566;-82
2022/06/05 09:45:15;;;;;;;8.73;5.70;;;;;;;30.78;42.99;94969.16;4973072;28;20479;-81
2022/06/05 09:47:47;;;;;;;8.50;5.90;;;;;;;30.73;42.84;94971.81;4973229;28;20453;-82
2022/06/05 09:50:23;;;;;;;6.60;5.40;;;;;;;30.79;43.44;94973.50;4973216;28;20538;-81
2022/06/05 09:52:50;;;;;;;5.40;4.90;;;;;;;30.83;42.62;94971.91;4973282;28;20611;-82
2022/06/05 09:55:20;;;;;;;6.67;5.90;;;;;;;30.78;43.08;94974.56;4972987;28;20486;-81
2022/06/05 10:00:51;;;;;;;12.17;5.60;;;;;;;30.62;43.58;94964.63;4973419;28;20838;-81
2022/06/05 10:03:21;;;;;;;7.00;5.57;;;;;;;30.76;43.14;94968.59;4973274;28;20452;-81
2022/06/05 10:06:17;;;;;;;7.60;5.50;;;;;;;30.71;43.32;94965.84;4972824;28;21215;-81
2022/06/05 10:08:47;;;;;;;5.77;5.23;;;;;;;30.68;42.82;94969.06;4973275;28;20461;-81
2022/06/05 10:11:26;;;;;;;6.70;5.47;;;;;;;30.69;43.04;94967.16;5021323;28;20533;-81
2022/06/05 10:14:04;;;;;;;11.43;7.00;;;;;;;30.71;42.97;94960.41;5093872;28;20931;-81
2022/06/05 10:16:38;;;;;;;8.50;5.80;;;;;;;30.79;43.62;94968.09;5094237;28;20477;-81
2022/06/05 10:19:25;;;;;;;11.37;5.40;;;;;;;30.82;41.97;94962.16;5093842;28;20890;-82
2022/06/05 10:22:00;;;;;;;7.73;5.63;;;;;;;30.78;42.13;94954.78;5094372;28;20449;-81
2022/06/05 10:24:37;;;;;;;10.53;5.87;;;;;;;30.85;42.60;94944.56;5093975;28;20444;-81
2022/06/05 10:27:05;;;;;;;9.33;6.03;;;;;;;30.84;42.29;94948.34;5058325;28;20445;-81
2022/06/05 10:29:38;;;;;;;6.77;6.07;;;;;;;30.77;40.90;94951.25;5093980;28;20527;-82
2022/06/05 10:32:12;;;;;;;5.70;5.20;;;;;;;30.79;41.62;94948.28;5094130;28;20455;-82
2022/06/05 10:34:47;;;;;;;8.43;5.00;;;;;;;30.72;41.62;94948.50;5093862;28;20448;-82
2022/06/05 10:37:24;;;;;;;7.70;5.10;;;;;;;30.81;42.16;94936.13;5094295;28;20445;-81
2022/06/05 10:40:07;;;;;;;6.90;5.17;;;;;;;30.88;41.91;94935.09;5094370;28;20487;-82
2022/06/05 10:42:40;;;;;;;8.27;5.43;;;;;;;30.87;42.50;94930.75;5094081;28;20444;-81
2022/06/05 10:45:23;;;;;;;5.53;5.13;;;;;;;30.81;41.67;94932.59;5093788;28;20448;-82
2022/06/05 10:48:09;;;;;;;5.23;4.77;;;;;;;30.87;42.83;94933.47;5094283;28;20529;-81
2022/06/05 10:50:45;;;;;;;7.00;5.07;;;;;;;31.02;43.55;94930.91;5093764;28;20455;-81
2022/06/05 10:53:17;;;;;;;6.23;5.63;;;;;;;31.01;41.33;94930.09;5093011;28;20445;-81
2022/06/05 10:55:59;;;;;;;6.73;4.80;;;;;;;31.10;41.33;94916.88;5093226;28;20455;-82
2022/06/05 10:58:33;;;;;;;9.33;7.93;;;;;;;31.28;39.81;94921.97;5093100;28;20486;-81
2022/06/05 11:01:21;;;;;;;12.10;5.30;;;;;;;31.38;40.88;94918.53;5093035;28;20951;-81
2022/06/05 11:03:57;;;;;;;5.07;4.70;;;;;;;31.18;39.85;94913.72;5093003;28;20448;-81
2022/06/05 11:06:38;;;;;;;5.27;4.77;;;;;;;31.06;39.11;94922.00;5093092;28;20459;-81
2022/06/05 11:09:27;;;;;;;5.90;5.40;;;;;;;30.96;40.60;94913.78;5093203;28;20548;-81
2022/06/05 11:14:59;;;;;;;5.53;4.80;;;;;;;30.93;40.62;94913.47;4991535;28;20489;-81
2022/06/05 11:17:42;;;;;;;14.20;5.60;;;;;;;31.06;40.95;94910.34;4991303;28;20457;-82
2022/06/05 11:20:14;;;;;;;6.50;4.70;;;;;;;31.15;41.37;94914.22;4991121;28;20506;-82
2022/06/05 11:22:53;;;;;;;5.73;5.07;;;;;;;31.12;41.59;94909.31;4991205;28;20458;-82
2022/06/05 11:25:27;;;;;;;6.40;5.80;;;;;;;31.08;41.72;94909.00;4991210;28;20496;-81
2022/06/05 11:28:26;;;;;;;6.20;5.70;;;;;;;31.21;42.89;94901.56;4991085;28;20446;-81
2022/06/05 11:31:08;;;;;;;7.83;5.33;;;;;;;31.20;42.15;94899.91;4991403;28;20457;-81
2022/06/05 11:33:47;;;;;;;7.30;5.63;;;;;;;31.02;42.38;94893.78;4991258;28;20457;-81
2022/06/05 11:36:19;;;;;;;5.90;5.03;;;;;;;31.02;44.38;94911.94;4990979;28;20462;-81
2022/06/05 11:39:00;;;;;;;6.03;5.40;;;;;;;30.91;43.36;94907.47;4990942;28;20492;-81
2022/06/05 11:41:31;;;;;;;5.60;4.60;;;;;;;30.94;40.46;94901.53;4990823;28;20457;-80
2022/06/05 11:44:19;;;;;;;8.40;5.47;;;;;;;30.95;39.97;94904.03;4991048;28;20441;-81
2022/06/05 11:46:56;;;;;;;6.17;4.90;;;;;;;31.06;41.93;94899.50;4990908;28;20500;-81
2022/06/05 11:49:37;;;;;;;4.90;4.43;;;;;;;31.19;41.93;94899.09;5054779;28;20843;-82
2022/06/05 11:52:13;;;;;;;5.87;5.40;;;;;;;31.16;40.32;94890.63;5092531;28;20448;-81
2022/06/05 11:54:47;;;;;;;6.10;5.57;;;;;;;31.27;40.12;94885.09;5092520;28;20434;-81
2022/06/05 11:57:23;;;;;;;6.60;4.80;;;;;;;31.49;39.96;94882.25;5092708;28;20510;-81
2022/06/05 11:59:57;;;;;;;4.93;3.60;;;;;;;31.50;37.88;94885.78;5092617;28;20488;-81
2022/06/05 12:02:53;;;;;;;4.53;3.43;;;;;;;31.40;34.00;94881.91;5092591;28;20446;-81
2022/06/05 12:05:40;;;;;;;3.90;2.57;;;;;;;31.28;33.03;94883.19;5096631;28;20437;-81
2022/06/05 12:08:10;;;;;;;5.77;3.77;;;;;;;31.06;34.66;94875.09;5014133;28;20487;-81